Time;durP1;ratioP1;P1;durP2;ratioP2;P2;SDS_P1;SDS_P2;PMS_P1;PMS_P2;Temp;Humidity;BMP_temperature;BMP_pressure;BME280_temperature;BME280_humidity;BME280_pressure;Samples;Min_cycle;Max_cycle;Signal;HPM_P1;HPM_P2
2023/03/31 00:00:32;;;;;;;20.67;4.10;;;11.50;99.90;;;;;;5049659;28;20063;-71
2023/03/31 00:02:58;;;;;;;22.75;4.20;;;11.50;99.90;;;;;;5045036;28;20037;-71
2023/03/31 00:05:25;;;;;;;19.60;4.15;;;11.50;99.90;;;;;;5063199;28;20036;-71
2023/03/31 00:07:59;;;;;;;19.43;3.90;;;11.50;99.90;;;;;;5063664;28;20090;-71
2023/03/31 00:10:34;;;;;;;22.88;4.80;;;11.50;99.90;;;;;;5061742;28;20871;-71
2023/03/31 00:13:01;;;;;;;18.40;4.63;;;11.40;99.90;;;;;;5053742;28;20104;-71
2023/03/31 00:15:27;;;;;;;17.80;4.20;;;11.40;99.90;;;;;;5061998;28;20036;-71
2023/03/31 00:17:53;;;;;;;19.23;4.10;;;11.40;99.90;;;;;;5065366;28;20127;-70
2023/03/31 00:20:19;;;;;;;17.30;3.92;;;11.40;99.90;;;;;;5059308;28;20082;-71
2023/03/31 00:22:45;;;;;;;19.45;4.57;;;11.40;99.90;;;;;;5055517;28;20044;-71
2023/03/31 00:25:15;;;;;;;15.88;4.10;;;11.40;99.90;;;;;;5038646;28;20076;-71
2023/03/31 00:27:45;;;;;;;15.95;3.70;;;11.40;99.90;;;;;;5066988;28;20040;-70
2023/03/31 00:30:13;;;;;;;15.20;4.30;;;11.40;99.90;;;;;;5050522;28;20083;-70
2023/03/31 00:32:39;;;;;;;20.42;5.03;;;11.30;99.90;;;;;;5069422;28;20408;-71
2023/03/31 00:35:05;;;;;;;19.52;4.88;;;11.30;99.90;;;;;;5060110;28;20032;-70
2023/03/31 00:37:32;;;;;;;14.40;4.30;;;11.20;99.90;;;;;;5065698;28;20041;-71
2023/03/31 00:39:58;;;;;;;18.52;4.85;;;11.20;99.90;;;;;;5061193;28;20086;-71
2023/03/31 00:42:24;;;;;;;14.30;4.40;;;11.20;99.90;;;;;;5059563;28;20037;-71
2023/03/31 00:45:22;;;;;;;14.15;4.80;;;11.10;99.90;;;;;;5066777;28;20426;-71
2023/03/31 00:48:09;;;;;;;18.02;5.43;;;11.10;99.90;;;;;;5049413;28;20047;-71
2023/03/31 00:50:42;;;;;;;16.83;5.22;;;11.00;99.90;;;;;;5067594;28;20090;-71
2023/03/31 00:53:16;;;;;;;17.20;4.78;;;10.90;99.90;;;;;;5061605;28;20029;-71
2023/03/31 00:55:50;;;;;;;18.35;5.72;;;10.90;99.90;;;;;;5061652;28;20047;-71
2023/03/31 00:58:19;;;;;;;18.17;5.40;;;10.90;99.90;;;;;;5043256;28;20052;-71
2023/03/31 01:00:52;;;;;;;18.60;5.38;;;10.90;99.90;;;;;;5065346;28;20045;-71
2023/03/31 01:03:21;;;;;;;15.98;4.95;;;10.80;99.90;;;;;;5042955;28;20049;-71
2023/03/31 01:06:02;;;;;;;16.10;5.18;;;10.80;99.90;;;;;;5064003;28;20049;-71
2023/03/31 01:08:28;;;;;;;13.82;4.70;;;10.80;99.90;;;;;;5056583;28;20028;-70
2023/03/31 01:10:57;;;;;;;16.80;4.95;;;10.80;99.90;;;;;;5039661;28;20045;-71
2023/03/31 01:13:24;;;;;;;14.35;5.30;;;10.70;99.90;;;;;;5043937;28;20048;-71
2023/03/31 01:15:50;;;;;;;13.40;4.85;;;10.60;99.90;;;;;;5065729;28;20033;-71
2023/03/31 01:18:19;;;;;;;20.48;6.28;;;10.70;99.90;;;;;;5062436;28;20556;-70
2023/03/31 01:20:57;;;;;;;14.63;4.97;;;10.60;99.90;;;;;;5046822;28;20045;-71
2023/03/31 01:23:47;;;;;;;13.95;5.43;;;10.60;99.90;;;;;;5059923;28;20441;-71
2023/03/31 01:26:41;;;;;;;15.77;4.93;;;10.60;99.90;;;;;;5064192;28;20041;-71
2023/03/31 01:29:39;;;;;;;20.73;5.57;;;10.60;99.90;;;;;;5039852;28;20044;-70
2023/03/31 01:32:22;;;;;;;16.20;5.43;;;10.60;99.90;;;;;;5054751;28;20036;-70
2023/03/31 01:35:03;;;;;;;19.00;5.78;;;10.60;99.90;;;;;;5063896;28;20518;-71
2023/03/31 01:38:06;;;;;;;14.38;4.45;;;10.60;99.90;;;;;;5065618;28;20052;-70
2023/03/31 01:40:58;;;;;;;23.23;5.95;;;10.60;99.90;;;;;;5057482;28;20044;-71
2023/03/31 01:43:42;;;;;;;13.98;5.28;;;10.60;99.90;;;;;;5055443;28;20040;-71
2023/03/31 01:46:28;;;;;;;17.73;5.22;;;10.50;99.90;;;;;;5059445;28;20036;-70
2023/03/31 01:49:10;;;;;;;15.13;4.88;;;10.50;99.90;;;;;;5062260;28;20044;-71
2023/03/31 01:52:03;;;;;;;15.70;4.85;;;10.50;99.90;;;;;;5060034;28;20048;-71
2023/03/31 01:54:38;;;;;;;14.80;4.53;;;10.50;99.90;;;;;;5065254;28;20098;-70
2023/03/31 01:57:32;;;;;;;16.02;4.80;;;10.50;99.90;;;;;;5043249;28;20036;-70
2023/03/31 02:00:03;;;;;;;15.98;4.82;;;10.50;99.90;;;;;;5053353;28;20115;-71
2023/03/31 02:02:36;;;;;;;14.30;4.82;;;10.50;99.90;;;;;;5053769;28;20141;-70
2023/03/31 02:05:12;;;;;;;13.25;4.80;;;10.50;99.90;;;;;;5061910;28;20040;-70
2023/03/31 02:07:43;;;;;;;14.13;4.57;;;10.50;99.90;;;;;;5061287;28;20044;-70
2023/03/31 02:10:11;;;;;;;12.63;4.65;;;10.50;99.90;;;;;;5058426;28;20056;-71
2023/03/31 02:12:41;;;;;;;12.50;4.43;;;10.50;99.90;;;;;;5063450;28;20500;-71
2023/03/31 02:15:10;;;;;;;15.52;4.50;;;10.50;99.90;;;;;;5062926;28;20090;-70
2023/03/31 02:17:38;;;;;;;14.77;4.30;;;10.50;99.90;;;;;;5063598;28;20041;-71
2023/03/31 02:20:11;;;;;;;15.60;4.97;;;10.50;99.90;;;;;;5051778;28;20055;-71
2023/03/31 02:22:41;;;;;;;12.30;4.22;;;10.50;99.90;;;;;;5063136;28;20127;-71
2023/03/31 02:25:10;;;;;;;13.35;4.40;;;10.50;99.90;;;;;;5041936;28;20079;-71
2023/03/31 02:27:46;;;;;;;15.70;5.18;;;10.50;99.90;;;;;;5069896;28;20127;-71
2023/03/31 02:30:12;;;;;;;16.52;3.95;;;10.50;99.90;;;;;;5065775;28;20064;-71
2023/03/31 02:32:43;;;;;;;11.60;3.73;;;10.50;99.90;;;;;;5067693;28;20124;-70
2023/03/31 02:35:16;;;;;;;13.38;3.90;;;10.50;99.90;;;;;;5046201;28;20080;-71
2023/03/31 02:37:42;;;;;;;16.83;4.30;;;10.50;99.90;;;;;;5045385;28;20503;-71
2023/03/31 02:40:14;;;;;;;15.35;4.07;;;10.50;99.90;;;;;;5058395;28;20120;-70
2023/03/31 02:42:41;;;;;;;14.10;4.10;;;10.50;99.90;;;;;;5040877;28;20435;-71
2023/03/31 02:45:35;;;;;;;14.90;4.27;;;10.50;99.90;;;;;;5049490;28;20044;-70
2023/03/31 02:48:01;;;;;;;12.95;4.32;;;10.50;99.90;;;;;;5038798;28;20045;-70
2023/03/31 02:50:33;;;;;;;17.30;4.22;;;10.50;99.90;;;;;;5068009;28;20128;-71
2023/03/31 02:53:22;;;;;;;13.07;4.38;;;10.50;99.90;;;;;;5068666;28;20440;-71
2023/03/31 02:56:12;;;;;;;12.20;3.70;;;10.60;99.90;;;;;;5066665;28;20094;-71
2023/03/31 02:58:47;;;;;;;14.98;3.55;;;10.60;99.90;;;;;;5060195;28;20122;-70
2023/03/31 03:01:31;;;;;;;12.68;3.85;;;10.60;99.90;;;;;;5063046;28;20064;-70
2023/03/31 03:04:05;;;;;;;11.07;3.90;;;10.60;99.90;;;;;;5061703;28;20037;-70
2023/03/31 03:06:37;;;;;;;14.43;4.20;;;10.60;99.90;;;;;;5048058;28;20045;-71
2023/03/31 03:09:15;;;;;;;10.82;4.20;;;10.60;99.90;;;;;;5069722;28;20044;-70
2023/03/31 03:12:10;;;;;;;12.27;4.40;;;10.70;99.90;;;;;;5067310;28;20064;-69
2023/03/31 03:14:43;;;;;;;13.35;4.68;;;10.70;99.90;;;;;;5045998;28;20113;-70
2023/03/31 03:17:13;;;;;;;11.30;4.55;;;10.70;99.90;;;;;;5061922;28;20506;-70
2023/03/31 03:19:41;;;;;;;15.75;4.93;;;10.70;99.90;;;;;;5058232;28;20044;-70
2023/03/31 03:22:07;;;;;;;11.30;4.20;;;10.70;99.90;;;;;;5061686;28;20046;-70
2023/03/31 03:24:33;;;;;;;12.90;4.47;;;10.70;99.90;;;;;;5065861;28;20111;-69
2023/03/31 03:26:59;;;;;;;12.80;4.43;;;10.80;99.90;;;;;;5050418;28;20142;-70
2023/03/31 03:29:28;;;;;;;10.70;4.30;;;10.70;99.90;;;;;;5058174;28;20044;-70
2023/03/31 03:31:53;;;;;;;9.95;4.10;;;10.70;99.90;;;;;;5056388;28;20480;-70
2023/03/31 03:34:19;;;;;;;11.18;4.25;;;10.70;99.90;;;;;;5062842;28;20033;-70
2023/03/31 03:36:45;;;;;;;11.82;4.30;;;10.70;99.90;;;;;;5064780;28;20128;-70
2023/03/31 03:39:11;;;;;;;14.00;4.63;;;10.70;99.90;;;;;;5063490;28;20037;-70
2023/03/31 03:41:37;;;;;;;11.00;3.88;;;10.70;99.90;;;;;;5060250;28;20409;-69
2023/03/31 03:44:04;;;;;;;11.63;4.50;;;10.70;99.90;;;;;;5065945;28;20432;-70
2023/03/31 03:46:29;;;;;;;10.48;4.20;;;10.70;99.90;;;;;;5065062;28;20392;-70
2023/03/31 03:48:55;;;;;;;8.13;3.60;;;10.70;99.90;;;;;;5062605;28;20029;-70
2023/03/31 03:51:21;;;;;;;14.15;3.92;;;10.60;99.90;;;;;;5062053;28;20037;-70
2023/03/31 03:53:47;;;;;;;9.77;3.75;;;10.60;99.90;;;;;;5047269;28;20538;-70
2023/03/31 03:56:13;;;;;;;14.63;4.43;;;10.70;99.90;;;;;;5047314;28;20044;-70
2023/03/31 03:58:38;;;;;;;11.90;4.07;;;10.60;99.90;;;;;;5052678;28;20056;-70
2023/03/31 04:01:04;;;;;;;10.73;3.97;;;10.60;99.90;;;;;;5066193;28;20408;-74
2023/03/31 04:03:30;;;;;;;10.57;3.85;;;10.60;99.90;;;;;;5064683;28;20052;-73
2023/03/31 04:05:56;;;;;;;9.65;3.80;;;10.60;99.90;;;;;;5064308;28;20045;-74
2023/03/31 04:08:22;;;;;;;10.57;4.10;;;10.60;99.90;;;;;;5068969;28;20032;-73
2023/03/31 04:10:49;;;;;;;6.90;3.50;;;10.60;99.90;;;;;;5037085;28;20049;-74
2023/03/31 04:13:16;;;;;;;10.23;4.53;;;10.60;99.90;;;;;;5067185;28;20135;-74
2023/03/31 04:15:42;;;;;;;8.93;3.50;;;10.60;99.90;;;;;;5066650;28;20051;-72
2023/03/31 04:18:21;;;;;;;9.27;3.75;;;10.60;99.90;;;;;;5070285;28;20036;-72
2023/03/31 04:20:53;;;;;;;12.10;4.10;;;10.60;99.90;;;;;;5056629;28;20033;-73
2023/03/31 04:23:22;;;;;;;11.52;4.20;;;10.60;99.90;;;;;;5058634;28;20451;-73
2023/03/31 04:25:49;;;;;;;9.25;3.45;;;10.60;99.90;;;;;;5061964;28;20153;-74
2023/03/31 04:28:15;;;;;;;;;;;10.60;99.90;;;;;;5049264;28;20048;-73
2023/03/31 04:30:41;;;;;;;11.95;4.35;;;10.50;99.90;;;;;;5046798;28;19956;-75
2023/03/31 04:33:07;;;;;;;11.70;4.20;;;10.50;99.90;;;;;;5066370;28;20106;-75
2023/03/31 04:38:32;;;;;;;12.10;4.00;;;10.60;99.90;;;;;;5044376;28;20044;-73
2023/03/31 04:40:58;;;;;;;14.32;5.13;;;10.50;99.90;;;;;;5057966;28;20058;-73
2023/03/31 04:43:24;;;;;;;12.75;4.93;;;10.60;99.90;;;;;;5058342;28;20041;-71
2023/03/31 04:45:50;;;;;;;14.77;5.07;;;10.60;99.90;;;;;;5068482;28;20098;-70
2023/03/31 04:48:16;;;;;;;12.93;4.72;;;10.60;99.90;;;;;;5060019;28;20044;-69
2023/03/31 04:50:42;;;;;;;12.90;4.40;;;10.60;99.90;;;;;;5068652;28;20055;-69
2023/03/31 04:53:10;;;;;;;11.90;3.95;;;10.60;99.90;;;;;;5063988;28;20067;-69
2023/03/31 04:55:36;;;;;;;11.02;4.10;;;10.50;99.90;;;;;;5059175;28;20045;-69
2023/03/31 04:58:02;;;;;;;15.10;4.80;;;10.60;99.90;;;;;;5060346;28;20637;-69
2023/03/31 05:00:27;;;;;;;12.40;4.70;;;10.60;99.90;;;;;;5062647;28;20055;-69
2023/03/31 05:02:58;;;;;;;13.57;4.43;;;10.60;99.90;;;;;;5039226;28;20084;-70
2023/03/31 05:05:23;;;;;;;12.73;4.93;;;10.60;99.90;;;;;;5059705;28;20066;-70
2023/03/31 05:07:49;;;;;;;11.73;4.63;;;10.50;99.90;;;;;;5062457;28;20033;-70
2023/03/31 05:10:15;;;;;;;11.77;5.00;;;10.60;99.90;;;;;;5046160;28;21573;-70
2023/03/31 05:12:41;;;;;;;13.57;5.53;;;10.60;99.90;;;;;;5062547;28;20040;-70
2023/03/31 05:15:07;;;;;;;16.33;6.03;;;10.50;99.90;;;;;;5060493;28;20028;-70
2023/03/31 05:17:34;;;;;;;13.93;5.90;;;10.50;99.90;;;;;;5063506;28;20044;-70
2023/03/31 05:20:00;;;;;;;14.70;6.78;;;10.50;99.90;;;;;;5064801;28;20115;-70
2023/03/31 05:22:26;;;;;;;11.70;5.97;;;10.50;99.90;;;;;;5067479;28;20035;-69
2023/03/31 05:24:52;;;;;;;13.45;6.28;;;10.50;99.90;;;;;;5060326;28;20037;-69
2023/03/31 05:27:20;;;;;;;12.00;5.85;;;10.50;99.90;;;;;;5067008;28;20057;-69
2023/03/31 05:29:46;;;;;;;14.05;6.07;;;10.50;99.90;;;;;;5067175;28;20083;-69
2023/03/31 05:32:15;;;;;;;14.13;5.90;;;10.40;99.90;;;;;;5063515;28;20033;-69
2023/03/31 05:34:42;;;;;;;13.13;6.25;;;10.50;99.90;;;;;;5069817;28;20127;-69
2023/03/31 05:37:11;;;;;;;17.93;5.87;;;10.40;99.90;;;;;;5047716;28;20131;-71
2023/03/31 05:39:36;;;;;;;15.93;6.82;;;10.40;99.90;;;;;;5048206;28;20071;-70
2023/03/31 05:42:04;;;;;;;15.23;6.57;;;10.40;99.90;;;;;;5066236;28;20551;-70
2023/03/31 05:44:30;;;;;;;14.63;6.47;;;10.40;99.90;;;;;;5062392;28;20045;-70
2023/03/31 05:46:56;;;;;;;10.73;5.65;;;10.40;99.90;;;;;;5039363;28;20048;-70
2023/03/31 05:49:22;;;;;;;12.68;6.20;;;10.40;99.90;;;;;;5066543;28;20048;-70
2023/03/31 05:51:48;;;;;;;13.75;6.53;;;10.40;99.90;;;;;;5059153;28;20892;-70
2023/03/31 05:54:14;;;;;;;12.35;5.88;;;10.40;99.90;;;;;;5063096;28;20183;-70
2023/03/31 05:56:39;;;;;;;14.05;6.03;;;10.40;99.90;;;;;;5063471;28;20387;-70
2023/03/31 05:59:05;;;;;;;11.93;6.22;;;10.40;99.90;;;;;;5039089;28;20037;-70
2023/03/31 06:01:31;;;;;;;11.75;6.18;;;10.40;99.90;;;;;;5033307;28;20469;-70
2023/03/31 06:03:57;;;;;;;14.52;5.68;;;10.40;99.90;;;;;;5061315;28;20541;-70
2023/03/31 06:06:23;;;;;;;11.13;5.88;;;10.40;99.90;;;;;;5046769;28;20049;-70
2023/03/31 06:08:49;;;;;;;10.75;5.38;;;10.40;99.90;;;;;;5046497;28;20072;-70
2023/03/31 06:11:18;;;;;;;12.13;5.35;;;10.40;99.90;;;;;;5069460;28;20086;-70
2023/03/31 06:13:44;;;;;;;11.98;5.30;;;10.40;99.90;;;;;;5046951;28;20125;-70
2023/03/31 06:16:16;;;;;;;11.75;4.93;;;10.40;99.90;;;;;;5069362;28;20068;-70
2023/03/31 06:18:42;;;;;;;11.45;5.00;;;10.40;99.90;;;;;;5045762;28;20227;-70
2023/03/31 06:21:17;;;;;;;11.70;5.33;;;10.40;99.90;;;;;;5030074;28;20032;-70
2023/03/31 06:23:44;;;;;;;10.05;5.22;;;10.40;99.90;;;;;;5051501;28;20309;-70
2023/03/31 06:26:12;;;;;;;11.40;5.45;;;10.40;99.90;;;;;;5057640;28;20049;-70
2023/03/31 06:28:38;;;;;;;10.13;4.97;;;10.40;99.90;;;;;;5065341;28;20044;-70
2023/03/31 06:31:06;;;;;;;11.32;5.45;;;10.40;99.90;;;;;;5060929;28;20048;-70
2023/03/31 06:33:32;;;;;;;9.95;5.28;;;10.40;99.90;;;;;;5064615;28;24440;-70
2023/03/31 06:36:00;;;;;;;11.30;5.43;;;10.40;99.90;;;;;;5064920;28;20079;-70
2023/03/31 06:38:27;;;;;;;14.90;6.32;;;10.40;99.90;;;;;;5049874;28;20044;-70
2023/03/31 06:40:53;;;;;;;12.77;5.90;;;10.40;99.90;;;;;;5046597;28;20044;-70
2023/03/31 06:43:19;;;;;;;14.00;6.65;;;10.40;99.90;;;;;;5064819;28;20119;-70
2023/03/31 06:45:45;;;;;;;14.65;6.50;;;10.40;99.90;;;;;;5067826;28;20049;-70
2023/03/31 06:48:11;;;;;;;12.85;6.20;;;10.40;99.90;;;;;;5044803;28;20055;-70
2023/03/31 06:50:38;;;;;;;14.38;6.60;;;10.40;99.90;;;;;;5061848;28;20037;-70
2023/03/31 06:53:04;;;;;;;13.65;7.13;;;10.40;99.90;;;;;;5056819;28;20029;-70
2023/03/31 06:55:31;;;;;;;11.48;6.47;;;10.40;99.90;;;;;;5046840;28;20086;-70
2023/03/31 06:57:56;;;;;;;13.30;6.15;;;10.50;99.90;;;;;;5057547;28;20055;-70
2023/03/31 07:00:24;;;;;;;15.68;6.50;;;10.50;99.90;;;;;;5072606;28;20775;-70
2023/03/31 07:02:53;;;;;;;12.50;6.75;;;10.50;99.90;;;;;;5066409;28;20087;-70
2023/03/31 07:05:26;;;;;;;14.38;6.20;;;10.50;99.90;;;;;;5071522;28;20053;-70
2023/03/31 07:07:56;;;;;;;11.38;5.57;;;10.50;99.90;;;;;;5060384;28;20041;-68
2023/03/31 07:10:23;;;;;;;15.63;6.13;;;10.50;99.90;;;;;;5063848;28;20657;-68
2023/03/31 07:12:49;;;;;;;16.17;6.55;;;10.60;99.90;;;;;;5047425;28;20045;-68
2023/03/31 07:15:17;;;;;;;15.88;6.68;;;10.60;99.90;;;;;;5068413;28;20032;-68
2023/03/31 07:17:43;;;;;;;14.93;6.30;;;10.60;99.90;;;;;;5051778;28;20102;-68
2023/03/31 07:20:14;;;;;;;16.50;6.60;;;10.60;99.90;;;;;;5072358;28;20040;-69
2023/03/31 07:22:42;;;;;;;12.55;6.45;;;10.60;99.90;;;;;;5065590;28;20419;-68
2023/03/31 07:25:09;;;;;;;11.95;6.03;;;10.60;99.90;;;;;;5062149;28;20056;-68
2023/03/31 07:27:35;;;;;;;;;;;10.60;99.90;;;;;;5056307;28;20041;-68
2023/03/31 07:30:01;;;;;;;14.95;6.70;;;10.50;99.90;;;;;;5044295;28;20338;-68
2023/03/31 07:32:27;;;;;;;12.90;5.77;;;10.60;99.90;;;;;;5070039;28;20068;-69
2023/03/31 07:34:53;;;;;;;13.57;6.47;;;10.60;99.90;;;;;;5048300;28;20083;-68
2023/03/31 07:37:18;;;;;;;14.40;6.15;;;10.60;99.90;;;;;;5046964;28;20048;-69
2023/03/31 07:39:44;;;;;;;15.02;6.65;;;10.60;99.90;;;;;;5039436;28;20040;-68
2023/03/31 07:42:10;;;;;;;16.20;6.70;;;10.60;99.90;;;;;;5068517;28;20040;-67
2023/03/31 07:44:36;;;;;;;17.52;7.25;;;10.60;99.90;;;;;;5064067;28;20037;-67
2023/03/31 07:47:03;;;;;;;17.40;6.88;;;10.70;99.90;;;;;;5053215;28;20131;-67
2023/03/31 07:49:33;;;;;;;16.52;6.60;;;10.70;99.90;;;;;;5055720;28;20170;-68
2023/03/31 07:51:59;;;;;;;13.77;6.97;;;10.70;99.90;;;;;;5065559;28;20090;-67
2023/03/31 07:54:25;;;;;;;17.30;6.88;;;10.80;99.90;;;;;;5068630;28;20040;-68
2023/03/31 07:56:54;;;;;;;14.82;7.38;;;10.80;99.90;;;;;;5069896;28;20094;-68
2023/03/31 07:59:22;;;;;;;14.10;7.18;;;10.80;99.90;;;;;;5040976;28;20150;-68
2023/03/31 08:01:48;;;;;;;11.48;6.88;;;10.80;99.90;;;;;;5067412;28;20487;-67
2023/03/31 08:04:14;;;;;;;12.98;6.85;;;10.80;99.90;;;;;;5066259;28;20047;-68
2023/03/31 08:06:39;;;;;;;11.50;6.97;;;10.80;99.90;;;;;;5059391;28;20037;-68
2023/03/31 08:09:08;;;;;;;15.90;8.38;;;10.80;99.90;;;;;;5061794;28;20457;-68
2023/03/31 08:11:34;;;;;;;14.43;8.25;;;10.80;99.90;;;;;;5061609;28;20048;-68
2023/03/31 08:14:00;;;;;;;12.50;8.25;;;10.80;99.90;;;;;;5063579;28;20044;-67
2023/03/31 08:16:26;;;;;;;15.97;8.23;;;10.80;99.90;;;;;;5070884;28;20040;-68
2023/03/31 08:18:52;;;;;;;15.43;8.50;;;10.90;99.90;;;;;;5046522;28;20098;-69
2023/03/31 08:21:17;;;;;;;18.00;8.20;;;10.90;99.90;;;;;;5064104;28;20040;-68
2023/03/31 08:23:43;;;;;;;13.23;8.32;;;10.90;99.90;;;;;;5072205;28;20044;-69
2023/03/31 08:26:17;;;;;;;13.05;7.93;;;10.90;99.90;;;;;;5054902;28;20049;-68
2023/03/31 08:28:44;;;;;;;13.43;8.63;;;10.90;99.90;;;;;;5040118;28;20037;-69
2023/03/31 08:31:10;;;;;;;18.63;8.82;;;10.90;99.90;;;;;;5045562;28;20048;-69
2023/03/31 08:33:36;;;;;;;16.77;8.48;;;10.90;99.90;;;;;;5060224;28;20041;-68
2023/03/31 08:36:09;;;;;;;15.40;8.52;;;11.00;99.90;;;;;;5065611;28;20056;-69
2023/03/31 08:38:40;;;;;;;15.82;8.23;;;11.00;99.90;;;;;;5055116;28;20395;-68
2023/03/31 08:41:16;;;;;;;12.15;7.20;;;11.00;99.90;;;;;;5062906;28;20029;-69
2023/03/31 08:43:45;;;;;;;11.43;6.60;;;11.00;99.90;;;;;;5046787;28;20049;-69
2023/03/31 08:46:14;;;;;;;15.50;6.93;;;11.10;99.90;;;;;;5054277;28;20507;-69
2023/03/31 08:48:56;;;;;;;10.77;5.60;;;11.10;99.90;;;;;;5044770;28;20055;-69
2023/03/31 08:51:31;;;;;;;10.95;5.05;;;11.20;99.90;;;;;;5062943;28;20050;-69
2023/03/31 08:54:17;;;;;;;12.32;4.82;;;11.20;99.90;;;;;;5065287;28;21168;-68
2023/03/31 08:56:48;;;;;;;11.60;3.97;;;11.20;99.90;;;;;;5058526;28;20158;-69
2023/03/31 08:59:32;;;;;;;8.80;4.03;;;11.20;99.90;;;;;;5048153;28;20045;-69
2023/03/31 09:02:01;;;;;;;11.27;4.30;;;11.30;99.90;;;;;;5064819;28;20052;-68
2023/03/31 09:04:52;;;;;;;10.52;3.47;;;11.20;99.90;;;;;;5045383;28;20045;-68
2023/03/31 09:07:43;;;;;;;10.45;3.70;;;11.30;99.90;;;;;;5047063;28;20102;-67
2023/03/31 09:10:52;;;;;;;10.65;3.50;;;11.40;99.90;;;;;;5037916;28;20049;-69
2023/03/31 09:13:49;;;;;;;7.97;2.92;;;11.40;99.90;;;;;;4980367;28;20572;-67
2023/03/31 09:16:44;;;;;;;9.82;3.65;;;11.50;99.90;;;;;;4974190;28;20089;-68
2023/03/31 09:19:32;;;;;;;8.52;2.80;;;11.50;99.90;;;;;;5047400;28;20499;-68
2023/03/31 09:22:00;;;;;;;9.57;2.83;;;11.60;99.90;;;;;;5059766;28;20040;-69
2023/03/31 09:24:43;;;;;;;7.55;2.60;;;11.60;99.90;;;;;;5048514;28;20068;-70
2023/03/31 09:27:11;;;;;;;6.43;2.65;;;11.60;99.90;;;;;;5060275;28;20155;-71
2023/03/31 09:30:06;;;;;;;10.35;3.20;;;11.60;99.90;;;;;;5062098;28;20060;-69
2023/03/31 09:32:32;;;;;;;6.22;2.38;;;11.60;99.90;;;;;;5042150;28;20048;-68
2023/03/31 09:35:15;;;;;;;7.25;2.40;;;11.70;99.90;;;;;;5040322;28;20041;-68
2023/03/31 09:37:40;;;;;;;8.23;2.58;;;11.70;99.90;;;;;;5058402;28;20041;-68
2023/03/31 09:40:07;;;;;;;10.02;2.92;;;11.70;99.90;;;;;;5051021;28;20032;-69
2023/03/31 09:42:34;;;;;;;7.28;2.67;;;11.70;99.90;;;;;;5057863;28;20106;-68
2023/03/31 09:45:00;;;;;;;9.05;2.78;;;11.70;99.90;;;;;;5065049;28;20093;-68
2023/03/31 09:47:37;;;;;;;9.20;3.08;;;11.80;99.90;;;;;;5044838;28;20040;-68
2023/03/31 09:50:05;;;;;;;8.70;2.45;;;11.80;99.90;;;;;;5056309;28;20045;-67
2023/03/31 09:52:31;;;;;;;6.53;2.63;;;11.80;99.90;;;;;;5063540;28;20055;-70
2023/03/31 09:55:00;;;;;;;6.25;2.17;;;11.90;99.90;;;;;;5052312;28;20556;-68
2023/03/31 09:57:34;;;;;;;6.90;2.17;;;11.90;99.90;;;;;;5061612;28;20044;-69
2023/03/31 10:00:15;;;;;;;6.97;1.95;;;11.90;99.90;;;;;;5049366;28;20098;-69
2023/03/31 10:02:48;;;;;;;6.47;1.95;;;11.90;99.90;;;;;;5049086;28;20063;-70
2023/03/31 10:05:40;;;;;;;4.78;1.63;;;11.90;99.90;;;;;;5057633;28;20431;-68
2023/03/31 10:08:19;;;;;;;5.85;1.92;;;11.80;99.90;;;;;;5048492;28;20067;-70
2023/03/31 10:10:50;;;;;;;5.65;1.90;;;11.80;99.90;;;;;;5061098;28;20044;-69
2023/03/31 10:13:19;;;;;;;7.28;1.90;;;11.80;99.90;;;;;;5063554;28;20673;-68
2023/03/31 10:15:45;;;;;;;6.68;1.70;;;11.80;99.90;;;;;;5050189;28;20048;-67
2023/03/31 10:18:16;;;;;;;6.47;1.95;;;11.70;99.90;;;;;;5039837;28;20137;-67
2023/03/31 10:20:47;;;;;;;5.88;1.80;;;11.70;99.90;;;;;;5050007;28;20045;-67
2023/03/31 10:23:28;;;;;;;6.25;2.33;;;11.70;99.90;;;;;;5061647;28;20075;-68
2023/03/31 10:25:54;;;;;;;4.95;1.80;;;11.70;99.90;;;;;;5035411;28;20490;-68
2023/03/31 10:28:21;;;;;;;5.13;1.95;;;11.60;99.90;;;;;;5061034;28;20094;-68
2023/03/31 10:30:53;;;;;;;5.22;1.90;;;11.70;99.90;;;;;;5056155;28;20508;-67
2023/03/31 10:33:26;;;;;;;5.45;1.92;;;11.70;99.90;;;;;;5058372;28;20086;-68
2023/03/31 10:35:58;;;;;;;5.25;1.90;;;11.70;99.90;;;;;;5049017;28;20041;-70
2023/03/31 10:38:29;;;;;;;6.72;2.17;;;11.70;99.90;;;;;;5053906;28;20056;-69
2023/03/31 10:40:57;;;;;;;7.10;2.00;;;11.80;99.90;;;;;;5047950;28;20063;-69
2023/03/31 10:43:29;;;;;;;5.18;2.00;;;11.90;99.90;;;;;;5060163;28;20036;-70
2023/03/31 10:45:58;;;;;;;4.72;1.77;;;11.90;99.90;;;;;;5067629;28;20098;-70
2023/03/31 10:48:30;;;;;;;4.53;1.90;;;12.00;99.90;;;;;;5036770;28;20045;-71
2023/03/31 10:51:02;;;;;;;4.28;1.70;;;12.00;99.90;;;;;;5063202;28;20150;-69
2023/03/31 10:53:29;;;;;;;5.15;1.63;;;12.00;99.90;;;;;;5038356;28;20079;-68
2023/03/31 10:55:54;;;;;;;4.72;1.63;;;12.00;99.90;;;;;;5060811;28;20033;-66
2023/03/31 10:58:33;;;;;;;6.05;2.05;;;12.00;99.90;;;;;;5044134;28;20392;-68
2023/03/31 11:01:02;;;;;;;5.60;2.13;;;12.00;99.90;;;;;;5068472;28;20052;-69
2023/03/31 11:03:30;;;;;;;5.97;2.03;;;12.00;99.90;;;;;;5036179;28;20508;-68
2023/03/31 11:06:08;;;;;;;6.32;2.10;;;12.00;99.90;;;;;;5036821;28;20103;-69
2023/03/31 11:08:54;;;;;;;4.63;1.60;;;12.00;99.90;;;;;;5042521;28;20040;-68
2023/03/31 11:11:48;;;;;;;4.85;1.70;;;12.00;99.90;;;;;;5012844;28;20110;-69
2023/03/31 11:14:21;;;;;;;6.40;1.85;;;12.00;99.90;;;;;;5067594;28;20491;-68
2023/03/31 11:17:00;;;;;;;6.50;2.15;;;12.00;99.90;;;;;;5063441;28;20037;-69
2023/03/31 11:19:44;;;;;;;7.70;2.10;;;12.00;99.90;;;;;;5048601;28;20094;-69
2023/03/31 11:22:26;;;;;;;6.28;2.10;;;12.10;99.90;;;;;;5051023;28;20087;-71
2023/03/31 11:25:26;;;;;;;6.57;1.90;;;12.20;99.90;;;;;;5064830;28;20360;-72
2023/03/31 11:28:10;;;;;;;6.55;1.92;;;12.30;99.90;;;;;;5043542;28;20044;-70
2023/03/31 11:30:48;;;;;;;6.80;2.35;;;12.30;99.90;;;;;;5063285;28;20068;-70
2023/03/31 11:33:27;;;;;;;7.82;2.25;;;12.30;99.90;;;;;;5054619;28;20033;-69
2023/03/31 11:36:14;;;;;;;9.43;2.60;;;12.30;99.90;;;;;;5059737;28;20041;-69
2023/03/31 11:38:56;;;;;;;7.18;2.92;;;12.50;99.90;;;;;;5063916;28;21617;-70
2023/03/31 11:41:32;;;;;;;7.53;2.65;;;12.50;99.90;;;;;;5063532;28;20123;-69
2023/03/31 11:44:04;;;;;;;6.85;2.55;;;12.60;99.90;;;;;;5064170;28;20040;-68
2023/03/31 11:46:33;;;;;;;9.20;2.47;;;12.60;99.90;;;;;;5039754;28;20456;-70
2023/03/31 11:49:14;;;;;;;7.10;2.67;;;12.60;99.90;;;;;;5070016;28;20040;-69
2023/03/31 11:52:00;;;;;;;6.32;2.63;;;12.70;99.90;;;;;;5048917;28;20143;-69
2023/03/31 11:54:30;;;;;;;5.18;2.38;;;12.70;99.90;;;;;;5063559;28;20112;-71
2023/03/31 11:56:56;;;;;;;7.32;2.75;;;12.80;99.90;;;;;;5065747;28;20048;-70
2023/03/31 11:59:28;;;;;;;7.05;2.88;;;12.70;99.90;;;;;;5063341;28;20396;-69
2023/03/31 12:02:14;;;;;;;5.97;2.47;;;12.80;99.90;;;;;;5058904;28;20509;-70
2023/03/31 12:04:43;;;;;;;6.80;2.60;;;12.70;99.90;;;;;;5061996;28;20103;-67
2023/03/31 12:07:26;;;;;;;8.98;2.83;;;12.70;99.90;;;;;;5057364;28;20045;-66
2023/03/31 12:10:19;;;;;;;10.10;3.10;;;12.70;99.90;;;;;;5067936;28;20037;-69
2023/03/31 12:13:30;;;;;;;6.97;2.85;;;12.70;99.90;;;;;;5044572;28;20055;-70
2023/03/31 12:16:13;;;;;;;8.88;3.10;;;12.60;99.90;;;;;;5018233;28;20518;-73
2023/03/31 12:19:17;;;;;;;8.88;3.28;;;12.70;99.90;;;;;;5040262;28;20555;-74
2023/03/31 12:21:50;;;;;;;9.25;3.53;;;12.80;99.90;;;;;;5011186;28;20049;-73
2023/03/31 12:24:16;;;;;;;9.48;3.30;;;12.80;99.90;;;;;;5066387;28;20419;-72
2023/03/31 12:26:56;;;;;;;10.73;3.40;;;13.00;99.90;;;;;;5063085;28;20190;-71
2023/03/31 12:29:26;;;;;;;8.55;3.33;;;13.10;99.90;;;;;;5062932;28;20233;-73
2023/03/31 12:32:00;;;;;;;10.82;3.85;;;13.20;99.90;;;;;;5070299;28;20044;-73
2023/03/31 12:34:28;;;;;;;11.05;3.90;;;13.30;99.90;;;;;;5061232;28;20033;-73
2023/03/31 12:37:09;;;;;;;11.10;3.22;;;13.40;99.90;;;;;;5059814;28;20400;-73
2023/03/31 12:39:44;;;;;;;11.52;4.22;;;13.40;99.90;;;;;;5064385;28;20124;-72
2023/03/31 12:42:55;;;;;;;10.02;3.80;;;13.40;99.90;;;;;;5049679;28;20056;-73
2023/03/31 12:45:27;;;;;;;10.63;3.30;;;13.40;99.90;;;;;;5034217;28;20052;-72
2023/03/31 12:48:18;;;;;;;9.00;3.85;;;13.50;99.90;;;;;;5041440;28;20037;-72
2023/03/31 12:50:43;;;;;;;11.93;4.60;;;13.70;99.90;;;;;;5056982;28;20891;-70
2023/03/31 12:53:29;;;;;;;12.05;4.10;;;13.80;99.90;;;;;;5061496;28;20045;-71
2023/03/31 12:55:59;;;;;;;11.80;3.90;;;13.80;99.90;;;;;;5059469;28;20060;-70
2023/03/31 12:58:32;;;;;;;12.07;4.70;;;13.80;99.90;;;;;;5063069;28;20047;-70
2023/03/31 13:01:10;;;;;;;12.60;4.05;;;13.70;99.90;;;;;;5041287;28;20111;-71
2023/03/31 13:03:42;;;;;;;11.48;4.03;;;13.70;99.90;;;;;;5064940;28;20059;-71
2023/03/31 13:06:26;;;;;;;14.30;4.13;;;13.80;99.90;;;;;;5051837;28;20827;-71
2023/03/31 13:09:04;;;;;;;11.60;3.40;;;13.80;99.90;;;;;;5052721;28;20056;-70